Time;durP1;ratioP1;P1;durP2;ratioP2;P2;SDS_P1;SDS_P2;PMS_P1;PMS_P2;Temp;Humidity;BMP_temperature;BMP_pressure;BME280_temperature;BME280_humidity;BME280_pressure;Samples;Min_cycle;Max_cycle;Signal;HPM_P1;HPM_P2
2023/03/11 00:01:49;;;;;;;10.35;7.82;;;;;;;4.27;100.00;95021.09;5013288;28;20037;-62
2023/03/11 00:04:14;;;;;;;10.52;8.68;;;;;;;4.29;100.00;95027.81;5019414;28;20038;-62
2023/03/11 00:06:39;;;;;;;10.63;7.15;;;;;;;4.36;100.00;95029.97;5024628;28;20022;-65
2023/03/11 00:09:05;;;;;;;8.38;7.13;;;;;;;4.35;100.00;95028.31;5024757;28;20033;-74
2023/03/11 00:11:30;;;;;;;7.32;6.60;;;;;;;4.24;100.00;95035.19;5021147;28;20454;-60
2023/03/11 00:13:56;;;;;;;8.15;6.10;;;;;;;4.22;100.00;95031.88;5016678;28;20037;-60
2023/03/11 00:16:21;;;;;;;7.10;5.80;;;;;;;4.38;100.00;95023.69;5026780;28;20056;-60
2023/03/11 00:18:50;;;;;;;7.50;6.30;;;;;;;4.20;100.00;95012.06;5026664;28;20260;-61
2023/03/11 00:21:17;;;;;;;6.82;5.90;;;;;;;4.15;100.00;95002.84;5015308;28;20036;-60
2023/03/11 00:23:42;;;;;;;5.95;5.45;;;;;;;4.08;100.00;94990.41;5016365;28;20530;-60
2023/03/11 00:26:08;;;;;;;6.20;5.60;;;;;;;4.09;100.00;94979.88;5017110;28;20029;-64
2023/03/11 00:28:33;;;;;;;5.88;5.25;;;;;;;4.10;100.00;94971.13;5017247;28;20110;-63
2023/03/11 00:30:58;;;;;;;7.95;6.25;;;;;;;4.10;100.00;94972.91;5016065;28;20108;-65
2023/03/11 00:33:24;;;;;;;6.78;6.07;;;;;;;4.04;100.00;94971.63;5016890;28;20059;-66
2023/03/11 00:35:50;;;;;;;7.65;6.85;;;;;;;4.07;100.00;94976.59;5019551;28;20095;-65
2023/03/11 00:38:16;;;;;;;8.07;6.60;;;;;;;4.15;100.00;94970.78;5017119;28;20029;-65
2023/03/11 00:40:43;;;;;;;6.80;5.68;;;;;;;4.14;100.00;94972.53;5018339;28;20412;-65
2023/03/11 00:43:09;;;;;;;6.88;5.82;;;;;;;4.17;100.00;94987.09;5014554;28;20458;-65
2023/03/11 00:45:35;;;;;;;5.43;4.93;;;;;;;4.05;100.00;94985.44;5009911;28;20029;-64
2023/03/11 00:48:00;;;;;;;5.70;5.20;;;;;;;4.01;100.00;94985.69;5024196;28;20502;-59
2023/03/11 00:50:29;;;;;;;5.60;5.10;;;;;;;4.23;100.00;94991.84;5018916;28;20025;-66
2023/03/11 00:52:55;;;;;;;6.20;5.22;;;;;;;4.28;100.00;94981.88;5023230;28;20035;-66
2023/03/11 00:55:26;;;;;;;5.93;5.38;;;;;;;4.26;100.00;94972.53;5016454;28;20029;-65
2023/03/11 00:57:57;;;;;;;6.40;5.35;;;;;;;4.25;100.00;94970.88;5016875;28;20096;-66
2023/03/11 01:00:23;;;;;;;6.43;5.82;;;;;;;4.14;100.00;94971.72;5021883;28;20037;-66
2023/03/11 01:02:50;;;;;;;6.07;5.47;;;;;;;4.05;100.00;94962.00;5012118;28;20032;-65
2023/03/11 01:05:18;;;;;;;6.05;5.45;;;;;;;3.99;100.00;94961.53;5026325;28;20032;-61
2023/03/11 01:07:43;;;;;;;6.80;6.20;;;;;;;3.95;100.00;94959.28;5024077;28;20040;-63
2023/03/11 01:10:09;;;;;;;6.32;5.72;;;;;;;3.99;100.00;94960.72;5014045;28;20022;-66
2023/03/11 01:12:35;;;;;;;5.30;4.88;;;;;;;3.91;100.00;94950.91;5024131;28;20608;-65
2023/03/11 01:15:00;;;;;;;6.45;5.70;;;;;;;3.97;100.00;94950.41;5017497;28;20037;-65
2023/03/11 01:17:26;;;;;;;6.63;5.38;;;;;;;4.03;100.00;94950.88;5013295;28;20036;-65
2023/03/11 01:19:51;;;;;;;4.72;4.32;;;;;;;3.91;100.00;94948.28;5023951;28;20068;-66
2023/03/11 01:22:16;;;;;;;4.78;4.38;;;;;;;3.84;100.00;94941.88;5021951;28;20061;-65
2023/03/11 01:24:42;;;;;;;4.65;4.25;;;;;;;3.82;100.00;94929.00;5023736;28;20095;-64
2023/03/11 01:27:07;;;;;;;5.20;4.72;;;;;;;3.94;100.00;94916.81;5021721;28;20033;-64
2023/03/11 01:29:33;;;;;;;4.53;4.13;;;;;;;4.01;100.00;94917.97;5025096;28;20021;-64
2023/03/11 01:31:58;;;;;;;5.03;4.63;;;;;;;3.94;100.00;94918.56;5025497;28;20031;-64
2023/03/11 01:34:24;;;;;;;5.60;4.82;;;;;;;3.91;100.00;94914.44;5015381;28;20064;-64
2023/03/11 01:36:49;;;;;;;4.70;4.28;;;;;;;3.88;100.00;94925.09;5023916;28;20524;-64
2023/03/11 01:39:14;;;;;;;5.45;4.90;;;;;;;3.94;100.00;94923.78;5023288;28;20064;-64
2023/03/11 01:41:40;;;;;;;4.82;4.40;;;;;;;3.86;100.00;94916.56;5017837;28;20044;-64
2023/03/11 01:44:06;;;;;;;4.50;4.20;;;;;;;3.84;100.00;94910.63;5015474;28;20049;-66
2023/03/11 01:46:53;;;;;;;4.30;4.00;;;;;;;3.82;100.00;94889.09;5012190;28;20033;-64
2023/03/11 01:49:20;;;;;;;3.90;3.65;;;;;;;3.90;100.00;94889.34;5015724;28;20137;-65
2023/03/11 01:51:53;;;;;;;4.22;3.90;;;;;;;3.97;100.00;94900.94;5025186;28;20030;-64
2023/03/11 01:54:30;;;;;;;4.00;3.70;;;;;;;3.85;100.00;94897.50;5016727;28;20041;-64
2023/03/11 01:56:57;;;;;;;4.00;3.72;;;;;;;3.83;100.00;94888.16;5022102;28;20036;-64
2023/03/11 01:59:29;;;;;;;3.00;2.80;;;;;;;3.79;100.00;94877.16;5024916;28;20108;-64
2023/03/11 02:02:00;;;;;;;3.10;2.90;;;;;;;3.69;100.00;94871.00;5031500;28;20018;-64
2023/03/11 02:04:28;;;;;;;4.22;2.85;;;;;;;3.92;100.00;94858.81;5027448;28;20030;-62
2023/03/11 02:06:55;;;;;;;2.60;2.40;;;;;;;3.98;100.00;94870.53;5020645;28;20549;-59
2023/03/11 02:09:22;;;;;;;2.80;2.08;;;;;;;3.93;100.00;94857.84;5018691;28;20034;-59
2023/03/11 02:11:49;;;;;;;2.35;2.22;;;;;;;3.78;100.00;94861.66;5027120;28;20567;-59
2023/03/11 02:14:14;;;;;;;4.78;4.45;;;;;;;3.75;100.00;94854.91;5021866;28;20102;-59
2023/03/11 02:16:39;;;;;;;2.10;2.00;;;;;;;3.79;100.00;94860.69;5024757;28;20060;-59
2023/03/11 02:19:50;;;;;;;2.97;2.20;;;;;;;3.78;100.00;94839.06;5020499;28;20058;-61
2023/03/11 02:22:15;;;;;;;2.10;2.00;;;;;;;3.72;100.00;94835.16;5022072;28;20556;-66
2023/03/11 02:24:58;;;;;;;2.08;1.98;;;;;;;3.78;100.00;94827.81;5025786;28;20037;-68
2023/03/11 02:27:25;;;;;;;4.18;3.83;;;;;;;3.68;100.00;94812.09;5019467;28;20036;-68
2023/03/11 02:29:52;;;;;;;2.97;2.78;;;;;;;3.60;100.00;94823.09;5028377;28;20022;-66
2023/03/11 02:32:19;;;;;;;2.30;2.20;;;;;;;3.57;100.00;94807.72;5025753;28;20088;-68
2023/03/11 02:34:44;;;;;;;9.90;4.55;;;;;;;3.57;100.00;94789.50;5028499;28;20541;-67
2023/03/11 02:37:12;;;;;;;2.85;2.60;;;;;;;3.88;100.00;94768.84;5030933;28;20025;-67
2023/03/11 02:39:42;;;;;;;1.70;1.70;;;;;;;3.78;100.00;94775.72;5031491;28;20455;-67
2023/03/11 02:42:15;;;;;;;2.13;2.03;;;;;;;3.80;100.00;94776.44;5031588;28;20029;-62
2023/03/11 02:44:45;;;;;;;1.92;1.83;;;;;;;3.73;100.00;94783.91;5031131;28;20076;-67
2023/03/11 02:47:11;;;;;;;2.08;1.98;;;;;;;3.60;100.00;94776.25;5032095;28;20037;-60
2023/03/11 02:49:37;;;;;;;2.40;2.30;;;;;;;3.51;100.00;94779.59;5031056;28;20079;-60
2023/03/11 02:52:02;;;;;;;13.40;9.82;;;;;;;3.62;100.00;94770.94;5031309;28;20625;-60
2023/03/11 02:54:28;;;;;;;2.38;2.20;;;;;;;3.68;100.00;94762.63;5030744;28;20044;-60
2023/03/11 02:56:53;;;;;;;3.65;3.45;;;;;;;3.57;100.00;94766.06;5031440;28;20052;-60
2023/03/11 02:59:18;;;;;;;2.47;2.38;;;;;;;3.52;100.00;94768.22;5017809;28;20078;-60
2023/03/11 03:01:44;;;;;;;3.13;2.78;;;;;;;3.67;100.00;94763.56;5031188;28;20108;-65
2023/03/11 03:04:09;;;;;;;2.97;2.78;;;;;;;3.67;100.00;94774.81;5031128;28;20026;-63
2023/03/11 03:06:35;;;;;;;2.45;2.35;;;;;;;3.64;100.00;94776.84;5023846;28;20508;-61
2023/03/11 03:09:00;;;;;;;2.55;2.40;;;;;;;3.52;100.00;94771.63;5031201;28;20026;-61
2023/03/11 03:11:25;;;;;;;2.67;2.58;;;;;;;3.66;100.00;94783.59;5031423;28;20031;-62
2023/03/11 03:13:51;;;;;;;3.15;2.80;;;;;;;3.63;100.00;94776.00;5031522;28;20021;-62
2023/03/11 03:16:16;;;;;;;34.03;22.85;;;;;;;3.43;100.00;94774.97;5031457;28;20025;-62
2023/03/11 03:18:42;;;;;;;2.75;2.65;;;;;;;3.53;100.00;94790.69;5031450;28;20041;-62
2023/03/11 03:21:07;;;;;;;2.40;2.30;;;;;;;3.43;100.00;94775.81;5031616;28;20573;-63
2023/03/11 03:23:34;;;;;;;3.83;3.53;;;;;;;3.33;100.00;94768.84;5026881;28;20029;-65
2023/03/11 03:26:00;;;;;;;3.05;2.85;;;;;;;3.27;100.00;94788.38;5023520;28;20031;-65
2023/03/11 03:28:27;;;;;;;4.53;2.80;;;;;;;3.29;100.00;94768.25;5026169;28;20041;-65
2023/03/11 03:30:52;;;;;;;2.10;2.10;;;;;;;3.45;100.00;94780.88;5012767;28;20097;-66
2023/03/11 03:33:17;;;;;;;3.13;2.92;;;;;;;3.25;100.00;94785.06;5030253;28;20148;-65
2023/03/11 03:35:44;;;;;;;9.43;8.07;;;;;;;3.20;100.00;94751.59;5031117;28;20041;-65
2023/03/11 03:38:09;;;;;;;4.70;4.30;;;;;;;3.18;100.00;94737.03;5021065;28;20026;-65
2023/03/11 03:40:34;;;;;;;2.40;2.30;;;;;;;3.31;100.00;94732.53;5027510;28;20025;-74
2023/03/11 03:43:00;;;;;;;2.60;2.40;;;;;;;3.27;100.00;94725.94;5031164;28;20487;-65
2023/03/11 03:45:25;;;;;;;2.85;2.75;;;;;;;3.26;100.00;94721.69;5017413;28;20037;-65
2023/03/11 03:47:50;;;;;;;19.02;13.50;;;;;;;3.23;100.00;94714.13;5030871;28;20032;-65
2023/03/11 03:50:16;;;;;;;3.90;3.70;;;;;;;3.19;100.00;94710.06;5030732;28;20100;-65
2023/03/11 03:52:41;;;;;;;2.80;2.70;;;;;;;3.24;100.00;94707.97;5030059;28;20033;-65
2023/03/11 03:55:07;;;;;;;3.72;3.42;;;;;;;3.23;100.00;94704.53;5030691;28;20029;-65
2023/03/11 03:57:32;;;;;;;4.32;3.67;;;;;;;3.28;100.00;94698.97;5030705;28;20072;-65
2023/03/11 03:59:58;;;;;;;3.85;3.55;;;;;;;3.22;100.00;94699.47;5030378;28;20029;-65
2023/03/11 04:02:23;;;;;;;10.35;7.90;;;;;;;3.23;100.00;94695.91;5031125;28;20029;-65
2023/03/11 04:04:48;;;;;;;6.82;4.85;;;;;;;3.36;100.00;94743.41;5030928;28;20072;-65
2023/03/11 04:07:14;;;;;;;3.30;3.20;;;;;;;3.26;100.00;94784.94;5028095;28;20026;-65
2023/03/11 04:09:42;;;;;;;4.43;4.13;;;;;;;3.22;100.00;94769.69;5026321;28;20018;-65
2023/03/11 04:12:12;;;;;;;5.38;4.97;;;;;;;3.26;100.00;94764.13;5030357;28;20478;-65
2023/03/11 04:14:38;;;;;;;3.25;3.15;;;;;;;3.40;100.00;94747.41;5030830;28;20025;-65
2023/03/11 04:17:03;;;;;;;3.15;3.03;;;;;;;3.46;100.00;94742.69;5025703;28;20022;-65
2023/03/11 04:19:29;;;;;;;3.33;3.13;;;;;;;3.70;100.00;94726.88;5015694;28;20042;-64
2023/03/11 04:21:54;;;;;;;2.95;2.85;;;;;;;3.60;100.00;94705.16;5028532;28;20079;-65
2023/03/11 04:24:19;;;;;;;3.13;3.03;;;;;;;3.51;100.00;94697.13;5030569;28;20033;-65
2023/03/11 04:26:45;;;;;;;4.90;4.50;;;;;;;3.33;100.00;94694.22;5024203;28;20503;-65
2023/03/11 04:29:10;;;;;;;5.95;5.20;;;;;;;3.14;100.00;94680.06;5030490;28;20475;-65
2023/03/11 04:31:35;;;;;;;9.13;7.63;;;;;;;3.07;100.00;94685.88;5029883;28;20029;-65
2023/03/11 04:34:01;;;;;;;7.45;6.40;;;;;;;3.05;100.00;94704.22;5030224;28;20033;-65
2023/03/11 04:36:26;;;;;;;9.77;8.68;;;;;;;3.03;100.00;94698.31;5030135;28;20026;-65
2023/03/11 04:38:52;;;;;;;11.23;7.75;;;;;;;3.07;100.00;94699.72;5026067;28;20021;-62
2023/03/11 04:41:17;;;;;;;4.07;3.88;;;;;;;3.07;100.00;94691.91;5025483;28;20025;-67
2023/03/11 04:43:43;;;;;;;3.28;3.15;;;;;;;3.09;100.00;94699.56;5018609;28;20120;-67
2023/03/11 04:46:08;;;;;;;3.05;2.95;;;;;;;3.10;100.00;94693.44;5027920;28;20021;-67
2023/03/11 04:48:33;;;;;;;4.32;4.03;;;;;;;3.14;100.00;94700.06;5027324;28;20025;-67
2023/03/11 04:50:59;;;;;;;4.55;4.30;;;;;;;3.20;100.00;94704.78;5027053;28;20022;-68
2023/03/11 04:53:24;;;;;;;4.72;4.43;;;;;;;3.27;100.00;94718.94;5030197;28;20032;-67
2023/03/11 04:55:51;;;;;;;4.00;3.80;;;;;;;3.29;100.00;94708.41;5029540;28;20039;-68
2023/03/11 04:58:16;;;;;;;11.32;9.13;;;;;;;3.17;100.00;94694.59;5026605;28;20104;-74
2023/03/11 05:00:41;;;;;;;7.80;7.00;;;;;;;3.15;100.00;94699.09;5026938;28;20112;-65
2023/03/11 05:03:07;;;;;;;4.78;4.38;;;;;;;3.11;100.00;94706.31;5027130;28;20095;-65
2023/03/11 05:05:32;;;;;;;3.45;3.30;;;;;;;3.10;100.00;94704.66;5021725;28;20026;-64
2023/03/11 05:07:57;;;;;;;8.02;6.32;;;;;;;3.22;100.00;94713.28;5019004;28;20101;-65
2023/03/11 05:10:23;;;;;;;3.42;3.25;;;;;;;3.39;100.00;94719.75;5026983;28;20179;-65
2023/03/11 05:12:49;;;;;;;3.55;3.45;;;;;;;3.37;100.00;94723.44;5029003;28;20021;-65
2023/03/11 05:15:15;;;;;;;3.92;3.72;;;;;;;3.27;100.00;94736.34;5029307;28;20045;-65
2023/03/11 05:17:40;;;;;;;4.57;4.28;;;;;;;3.21;100.00;94729.84;5029137;28;20099;-65
2023/03/11 05:20:07;;;;;;;5.10;4.53;;;;;;;3.23;100.00;94694.13;5028641;28;20021;-65
2023/03/11 05:22:32;;;;;;;3.78;3.58;;;;;;;3.39;100.00;94700.72;5021800;28;20033;-65
2023/03/11 05:24:58;;;;;;;3.47;3.28;;;;;;;3.38;100.00;94718.09;5013204;28;20022;-66
2023/03/11 05:27:23;;;;;;;4.13;3.92;;;;;;;3.17;100.00;94679.00;5028456;28;20033;-64
2023/03/11 05:29:48;;;;;;;8.77;7.88;;;;;;;3.09;100.00;94663.16;5028696;28;20144;-65
2023/03/11 05:32:14;;;;;;;4.32;4.13;;;;;;;3.26;100.00;94673.06;5026657;28;20029;-65
2023/03/11 05:34:39;;;;;;;5.50;5.20;;;;;;;3.10;100.00;94647.44;5028849;28;20590;-62
2023/03/11 05:37:05;;;;;;;13.13;11.82;;;;;;;3.15;100.00;94644.50;5027257;28;20510;-65
2023/03/11 05:39:30;;;;;;;6.32;5.93;;;;;;;3.12;100.00;94647.34;5028412;28;20026;-65
2023/03/11 05:41:55;;;;;;;32.42;28.45;;;;;;;3.13;100.00;94647.19;5029223;28;20036;-65
2023/03/11 05:44:21;;;;;;;10.30;9.35;;;;;;;3.10;100.00;94660.44;5029292;28;20032;-64
2023/03/11 05:46:47;;;;;;;9.75;9.05;;;;;;;3.12;100.00;94655.94;5028455;28;20029;-65
2023/03/11 05:49:12;;;;;;;7.40;6.90;;;;;;;3.08;100.00;94667.56;5029190;28;20020;-65
2023/03/11 05:51:37;;;;;;;5.93;5.60;;;;;;;3.27;100.00;94671.28;5027697;28;20028;-65
2023/03/11 05:54:03;;;;;;;5.43;5.13;;;;;;;3.28;100.00;94680.75;5024229;28;20057;-63
2023/03/11 05:56:28;;;;;;;7.70;7.10;;;;;;;3.39;100.00;94692.91;5024407;28;20463;-64
2023/03/11 05:58:56;;;;;;;8.90;8.13;;;;;;;3.27;100.00;94711.13;5028709;28;20032;-60
2023/03/11 06:01:21;;;;;;;10.73;9.82;;;;;;;3.22;100.00;94696.84;5028434;28;20531;-60
2023/03/11 06:03:47;;;;;;;9.25;8.65;;;;;;;3.15;100.00;94697.31;5027643;28;20116;-60
2023/03/11 06:06:13;;;;;;;5.20;4.90;;;;;;;3.27;100.00;94708.53;5028949;28;20114;-61
2023/03/11 06:08:38;;;;;;;5.15;4.75;;;;;;;3.13;100.00;94714.00;5027991;28;20025;-61
2023/03/11 06:11:09;;;;;;;4.30;4.10;;;;;;;3.14;100.00;94700.88;5028093;28;20025;-61
2023/03/11 06:13:36;;;;;;;4.10;3.90;;;;;;;3.20;100.00;94685.72;5028536;28;20032;-63
2023/03/11 06:16:02;;;;;;;3.50;3.40;;;;;;;3.29;100.00;94704.03;5028915;28;20029;-74
2023/03/11 06:18:27;;;;;;;3.90;3.70;;;;;;;3.29;100.00;94687.59;5024374;28;20519;-62
2023/03/11 06:20:56;;;;;;;3.28;3.17;;;;;;;3.22;100.00;94699.47;5028838;28;20128;-62
2023/03/11 06:23:21;;;;;;;4.82;4.60;;;;;;;3.15;100.00;94681.72;5023775;28;20095;-63
2023/03/11 06:26:01;;;;;;;4.13;3.92;;;;;;;3.26;100.00;94688.66;5018019;28;20136;-62
2023/03/11 06:28:28;;;;;;;3.60;3.50;;;;;;;3.18;100.00;94683.25;5021542;28;20032;-62
2023/03/11 06:30:55;;;;;;;11.15;10.30;;;;;;;3.16;100.00;94674.75;5021418;28;20400;-63
2023/03/11 06:33:22;;;;;;;5.13;4.82;;;;;;;3.09;100.00;94668.34;5025684;28;20030;-65
2023/03/11 06:35:58;;;;;;;3.88;3.67;;;;;;;3.36;100.00;94660.16;5028528;28;20018;-66
2023/03/11 06:38:24;;;;;;;5.85;5.55;;;;;;;3.23;100.00;94667.28;5029543;28;20606;-65
2023/03/11 06:40:50;;;;;;;8.15;7.57;;;;;;;3.18;100.00;94690.22;5032021;28;20032;-65
2023/03/11 06:43:16;;;;;;;6.40;6.00;;;;;;;3.12;100.00;94678.53;5032333;28;20037;-65
2023/03/11 06:45:41;;;;;;;6.38;5.97;;;;;;;3.23;100.00;94719.31;5018901;28;20513;-65
2023/03/11 06:48:06;;;;;;;6.10;5.70;;;;;;;3.23;100.00;94703.72;5032212;28;20099;-66
2023/03/11 06:50:32;;;;;;;6.00;5.60;;;;;;;3.33;100.00;94704.63;5031871;28;20032;-65
2023/03/11 06:52:57;;;;;;;6.60;6.20;;;;;;;3.44;100.00;94738.44;5032315;28;20034;-68
2023/03/11 06:55:22;;;;;;;5.45;5.15;;;;;;;3.37;100.00;94716.44;5031679;28;20080;-60
2023/03/11 06:57:48;;;;;;;5.88;5.57;;;;;;;3.34;100.00;94711.47;5032267;28;20029;-62
2023/03/11 07:00:14;;;;;;;13.50;10.60;;;;;;;3.38;100.00;94740.69;5029952;28;20029;-62
2023/03/11 07:02:40;;;;;;;12.90;11.60;;;;;;;3.41;100.00;94728.25;5031217;28;20037;-62
2023/03/11 07:05:06;;;;;;;29.63;14.52;;;;;;;3.47;100.00;94750.38;5030781;28;20026;-63
2023/03/11 07:07:31;;;;;;;6.43;5.82;;;;;;;3.53;100.00;94726.44;5029837;28;20038;-63
2023/03/11 07:09:56;;;;;;;9.52;8.82;;;;;;;3.46;100.00;94724.47;5031790;28;20025;-62
2023/03/11 07:12:24;;;;;;;7.43;6.93;;;;;;;3.49;100.00;94732.03;5031508;28;20057;-66
2023/03/11 07:14:56;;;;;;;9.00;8.35;;;;;;;3.63;100.00;94744.75;5031167;28;20032;-65
2023/03/11 07:17:22;;;;;;;7.18;6.68;;;;;;;3.66;100.00;94756.72;5028528;28;20033;-61
2023/03/11 07:19:47;;;;;;;5.43;5.13;;;;;;;3.79;100.00;94726.16;5027437;28;20543;-61
2023/03/11 07:22:13;;;;;;;6.97;6.47;;;;;;;3.85;100.00;94771.69;5029709;28;20080;-61
2023/03/11 07:24:38;;;;;;;6.60;6.20;;;;;;;3.84;100.00;94778.69;5018795;28;20034;-61
2023/03/11 07:27:04;;;;;;;7.72;7.25;;;;;;;3.73;100.00;94805.56;5024187;28;20055;-61
2023/03/11 07:29:29;;;;;;;7.07;6.57;;;;;;;3.60;100.00;94797.06;5025920;28;20491;-60
2023/03/11 07:31:55;;;;;;;7.90;7.40;;;;;;;3.51;100.00;94823.84;5025489;28;20072;-62
2023/03/11 07:34:20;;;;;;;7.35;6.68;;;;;;;3.52;100.00;94810.69;5026450;28;20041;-65
2023/03/11 07:36:45;;;;;;;6.60;6.20;;;;;;;3.70;100.00;94823.19;5024135;28;20061;-66
2023/03/11 07:39:16;;;;;;;9.18;8.27;;;;;;;3.66;100.00;94858.25;5027951;28;20022;-67
2023/03/11 07:41:42;;;;;;;15.55;9.20;;;;;;;3.58;100.00;94840.59;5017953;28;20037;-66
2023/03/11 07:44:07;;;;;;;6.72;6.05;;;;;;;3.52;100.00;94823.69;5021817;28;20514;-67
2023/03/11 07:46:32;;;;;;;7.97;7.38;;;;;;;3.69;100.00;94829.34;5017630;28;20033;-67
2023/03/11 07:49:00;;;;;;;7.32;6.72;;;;;;;3.84;100.00;94819.50;5014913;28;20040;-66
2023/03/11 07:51:28;;;;;;;7.40;6.80;;;;;;;3.90;100.00;94811.22;5024439;28;20433;-62
2023/03/11 07:53:55;;;;;;;6.28;5.88;;;;;;;3.93;100.00;94805.75;5012000;28;20470;-61
2023/03/11 07:56:23;;;;;;;6.65;6.18;;;;;;;4.10;100.00;94812.22;5021451;28;20029;-61
2023/03/11 07:58:49;;;;;;;9.65;8.95;;;;;;;4.04;100.00;94807.50;5024653;28;20577;-60
2023/03/11 08:01:17;;;;;;;5.43;4.93;;;;;;;3.99;100.00;94784.44;5023103;28;20090;-60
2023/03/11 08:03:45;;;;;;;5.82;5.43;;;;;;;3.97;100.00;94801.97;5021443;28;20026;-61
2023/03/11 08:06:13;;;;;;;5.97;5.43;;;;;;;4.04;100.00;94801.44;5025559;28;20032;-60
2023/03/11 08:08:38;;;;;;;5.47;5.10;;;;;;;4.04;100.00;94811.88;5021042;28;20117;-60
2023/03/11 08:11:03;;;;;;;5.00;4.70;;;;;;;3.99;100.00;94813.06;5019364;28;20089;-63
2023/03/11 08:13:29;;;;;;;5.05;4.65;;;;;;;4.06;100.00;94826.44;5027640;28;20017;-65
2023/03/11 08:15:54;;;;;;;5.13;4.82;;;;;;;4.12;100.00;94817.31;5021700;28;20054;-65
2023/03/11 08:18:19;;;;;;;6.78;6.28;;;;;;;4.12;100.00;94819.91;5026933;28;20057;-65
2023/03/11 08:20:45;;;;;;;7.22;6.82;;;;;;;4.18;100.00;94822.03;5018121;28;20030;-65
2023/03/11 08:23:10;;;;;;;10.52;9.73;;;;;;;4.22;100.00;94814.78;5028955;28;20029;-66
2023/03/11 08:25:39;;;;;;;12.02;10.93;;;;;;;4.26;100.00;94837.03;5027893;28;20029;-65
2023/03/11 08:28:06;;;;;;;15.15;12.02;;;;;;;4.22;100.00;94830.44;5015774;28;20030;-66
2023/03/11 08:30:32;;;;;;;11.27;10.18;;;;;;;4.18;100.00;94852.44;5020245;28;20037;-67
2023/03/11 08:32:57;;;;;;;9.13;8.35;;;;;;;4.18;100.00;94849.84;5018130;28;20498;-67
2023/03/11 08:35:23;;;;;;;8.40;7.70;;;;;;;4.19;100.00;94857.53;5020036;28;20033;-67
2023/03/11 08:37:48;;;;;;;8.68;7.95;;;;;;;4.25;100.00;94869.25;5015550;28;20033;-66
2023/03/11 08:40:13;;;;;;;13.23;12.02;;;;;;;4.29;100.00;94868.06;5014148;28;20025;-67
2023/03/11 08:42:39;;;;;;;21.73;19.48;;;;;;;4.33;100.00;94863.44;5012753;28;20022;-67
2023/03/11 08:45:05;;;;;;;13.70;12.50;;;;;;;4.54;100.00;94860.84;5014979;28;20762;-67
2023/03/11 08:47:36;;;;;;;10.90;9.80;;;;;;;4.59;100.00;94859.53;5010281;28;20634;-67
2023/03/11 08:50:03;;;;;;;6.05;5.53;;;;;;;4.60;100.00;94857.72;5012119;28;20026;-67
2023/03/11 08:52:28;;;;;;;6.97;6.47;;;;;;;4.59;100.00;94845.66;5015101;28;20036;-63
2023/03/11 08:54:53;;;;;;;8.75;8.05;;;;;;;4.64;100.00;94861.78;5019540;28;20030;-63
2023/03/11 08:57:19;;;;;;;7.13;6.53;;;;;;;4.76;100.00;94848.66;5017231;28;20029;-65
2023/03/11 08:59:44;;;;;;;6.78;6.10;;;;;;;4.71;100.00;94846.41;5014509;28;20552;-63
2023/03/11 09:02:10;;;;;;;5.03;4.65;;;;;;;4.75;100.00;94863.47;5011313;28;20017;-64
2023/03/11 09:04:35;;;;;;;5.20;4.80;;;;;;;4.81;100.00;94857.75;5012337;28;20029;-64
2023/03/11 09:07:01;;;;;;;3.90;3.70;;;;;;;4.83;100.00;94855.00;5015908;28;20083;-67
2023/03/11 09:09:26;;;;;;;3.40;3.20;;;;;;;4.89;100.00;94872.78;5016623;28;20061;-66
2023/03/11 09:11:51;;;;;;;3.53;3.33;;;;;;;4.97;100.00;94883.41;5013737;28;20017;-63
2023/03/11 09:14:17;;;;;;;4.38;4.07;;;;;;;5.05;100.00;94881.91;5011383;28;20029;-63
2023/03/11 09:16:42;;;;;;;6.63;6.22;;;;;;;5.13;100.00;94884.75;5015422;28;20026;-63
2023/03/11 09:19:08;;;;;;;9.65;8.85;;;;;;;5.16;100.00;94869.63;5021601;28;20042;-64
2023/03/11 09:21:35;;;;;;;8.35;7.40;;;;;;;5.36;100.00;94866.31;5015955;28;20115;-64
2023/03/11 09:24:03;;;;;;;10.68;9.63;;;;;;;5.45;100.00;94870.75;5015788;28;20455;-64
2023/03/11 09:26:29;;;;;;;12.73;10.10;;;;;;;5.49;100.00;94866.09;5022308;28;20029;-67
2023/03/11 09:28:54;;;;;;;12.35;8.68;;;;;;;5.52;100.00;94858.81;5014345;28;20029;-64
2023/03/11 09:31:20;;;;;;;7.38;6.78;;;;;;;5.68;100.00;94866.19;5023886;28;20450;-68
2023/03/11 09:33:46;;;;;;;5.50;4.97;;;;;;;5.84;100.00;94867.44;5018210;28;20025;-68
2023/03/11 09:36:19;;;;;;;4.78;4.38;;;;;;;5.74;100.00;94870.84;5027364;28;20064;-67
2023/03/11 09:38:46;;;;;;;4.68;4.38;;;;;;;5.70;100.00;94869.47;5024670;28;20506;-67
2023/03/11 09:41:36;;;;;;;5.68;5.28;;;;;;;5.75;100.00;94895.22;5023171;28;20478;-67
2023/03/11 09:44:11;;;;;;;10.90;9.85;;;;;;;6.02;100.00;94867.69;5017978;28;20029;-67
2023/03/11 09:47:27;;;;;;;7.97;7.28;;;;;;;6.00;100.00;94890.47;5015851;28;20030;-67
2023/03/11 09:50:13;;;;;;;8.63;7.72;;;;;;;6.18;100.00;94880.22;4988806;28;20041;-64
2023/03/11 09:52:42;;;;;;;10.52;9.63;;;;;;;6.22;100.00;94878.19;5017189;28;20036;-64
2023/03/11 09:55:23;;;;;;;9.70;8.90;;;;;;;6.26;100.00;94890.81;5016581;28;20025;-64
2023/03/11 09:57:51;;;;;;;8.65;7.93;;;;;;;6.41;100.00;94883.44;5024154;28;20398;-63
2023/03/11 10:00:19;;;;;;;7.00;6.35;;;;;;;6.53;100.00;94881.50;5022796;28;20018;-64
2023/03/11 10:02:45;;;;;;;11.50;10.50;;;;;;;6.69;100.00;94895.81;5021012;28;20077;-64
2023/03/11 10:05:25;;;;;;;11.07;10.00;;;;;;;6.77;100.00;94887.28;5022440;28;20021;-63
2023/03/11 10:08:19;;;;;;;16.00;11.90;;;;;;;6.77;100.00;94905.59;5025823;28;20029;-68
2023/03/11 10:10:54;;;;;;;52.47;29.55;;;;;;;6.88;100.00;94915.94;4994163;28;20415;-67
2023/03/11 10:13:38;;;;;;;15.77;12.15;;;;;;;7.07;100.00;94906.41;5029385;28;20102;-67
2023/03/11 10:16:23;;;;;;;11.50;9.55;;;;;;;7.32;100.00;94933.78;5028203;28;20503;-66
2023/03/11 10:18:55;;;;;;;7.15;6.55;;;;;;;7.14;100.00;94937.13;5027187;28;20052;-66
2023/03/11 10:21:46;;;;;;;8.02;7.32;;;;;;;6.96;100.00;94949.25;5024420;28;20041;-66
2023/03/11 10:24:35;;;;;;;6.05;5.55;;;;;;;6.90;100.00;94921.00;5024786;28;20022;-66
2023/03/11 10:27:07;;;;;;;64.72;50.25;;;;;;;7.05;100.00;94935.34;4986654;28;20030;-61
2023/03/11 10:29:50;;;;;;;24.25;20.98;;;;;;;6.98;100.00;94953.38;5021613;28;20104;-68
2023/03/11 10:32:49;;;;;;;9.70;8.70;;;;;;;7.01;100.00;94918.28;5021731;28;20076;-67
2023/03/11 10:35:21;;;;;;;7.55;7.05;;;;;;;7.17;100.00;94925.56;5010785;28;20067;-68
2023/03/11 10:37:53;;;;;;;6.97;6.47;;;;;;;7.25;100.00;94922.25;5019911;28;20507;-67
2023/03/11 10:40:35;;;;;;;6.72;6.18;;;;;;;7.25;100.00;94932.72;5025735;28;20476;-67
2023/03/11 10:43:09;;;;;;;5.63;5.22;;;;;;;7.35;100.00;94927.47;5018910;28;20656;-68
2023/03/11 10:45:42;;;;;;;6.82;6.30;;;;;;;7.56;100.00;94920.25;5020073;28;20025;-67
2023/03/11 10:48:13;;;;;;;7.75;7.15;;;;;;;7.65;100.00;94928.19;5025165;28;20026;-63
2023/03/11 10:51:01;;;;;;;7.65;6.95;;;;;;;7.70;100.00;94923.34;5016992;28;20018;-63
2023/03/11 10:53:26;;;;;;;10.38;9.50;;;;;;;7.78;100.00;94928.72;5022611;28;20017;-63
2023/03/11 10:55:54;;;;;;;10.50;9.57;;;;;;;7.94;100.00;94928.09;5024218;28;20044;-63
2023/03/11 10:58:25;;;;;;;6.75;6.25;;;;;;;8.17;100.00;94928.53;5028181;28;20047;-63
2023/03/11 11:01:01;;;;;;;7.10;6.60;;;;;;;8.08;100.00;94933.84;5020387;28;20030;-63
2023/03/11 11:03:27;;;;;;;7.28;6.65;;;;;;;8.05;100.00;94928.88;5027568;28;20033;-63
2023/03/11 11:05:59;;;;;;;7.85;7.25;;;;;;;8.05;100.00;94928.88;5025109;28;20026;-64
2023/03/11 11:08:24;;;;;;;6.60;6.10;;;;;;;8.12;100.00;94936.00;5022169;28;20111;-63
2023/03/11 11:10:58;;;;;;;7.03;6.47;;;;;;;8.32;100.00;94936.75;5027552;28;20112;-63
2023/03/11 11:13:29;;;;;;;8.05;7.53;;;;;;;8.40;100.00;94940.44;5025676;28;20155;-64
2023/03/11 11:15:59;;;;;;;40.97;22.98;;;;;;;8.43;100.00;94942.75;5024930;28;20526;-62
2023/03/11 11:18:41;;;;;;;8.05;7.25;;;;;;;8.37;100.00;94953.84;5023264;28;20500;-63
2023/03/11 11:21:12;;;;;;;23.63;15.02;;;;;;;8.28;100.00;94945.88;5025703;28;20018;-62
2023/03/11 11:23:46;;;;;;;14.93;10.25;;;;;;;8.34;100.00;94959.41;5020639;28;20102;-65
2023/03/11 11:26:14;;;;;;;10.38;9.43;;;;;;;8.28;100.00;94955.56;5025992;28;20026;-68
2023/03/11 11:28:39;;;;;;;10.63;9.63;;;;;;;8.28;100.00;94966.84;5018593;28;20025;-65
2023/03/11 11:31:22;;;;;;;10.50;9.40;;;;;;;8.53;100.00;94956.69;5024236;28;20028;-64
2023/03/11 11:33:50;;;;;;;11.25;10.05;;;;;;;8.84;100.00;94935.34;5016758;28;20037;-65
2023/03/11 11:36:17;;;;;;;13.07;11.80;;;;;;;9.21;100.00;94945.84;5025517;28;20025;-66